createdAt,value
2022-12-25T00:01:46.554Z,101121.59
2022-12-25T00:04:13.117Z,101116.03
2022-12-25T00:06:39.616Z,101114.53
2022-12-25T00:09:06.032Z,101140.41
2022-12-25T00:11:32.494Z,101135.63
2022-12-25T00:13:58.938Z,101144.59
2022-12-25T00:16:26.788Z,101141.09
2022-12-25T00:18:54.334Z,101136.63
2022-12-25T00:21:22.201Z,101124.59
2022-12-25T00:23:54.272Z,101137.53
2022-12-25T00:26:21.050Z,101150.56
2022-12-25T00:28:47.620Z,101158.72
2022-12-25T00:31:18.596Z,101165.63
2022-12-25T00:33:47.317Z,101169.41
2022-12-25T00:36:15.668Z,101174.25
2022-12-25T00:38:42.791Z,101177.97
2022-12-25T00:41:11.965Z,101182.06
2022-12-25T00:43:39.310Z,101176.03
2022-12-25T00:46:06.939Z,101172.50
2022-12-25T00:48:34.783Z,101172.16
2022-12-25T00:51:04.450Z,101168.97
2022-12-25T00:53:31.340Z,101169.84
2022-12-25T00:56:00.910Z,101167.00
2022-12-25T00:58:30.537Z,101164.28
2022-12-25T01:00:57.626Z,101162.72
2022-12-25T01:03:24.746Z,101165.16
2022-12-25T01:06:00.613Z,101166.50
2022-12-25T01:08:28.979Z,101163.66
2022-12-25T01:11:01.803Z,101166.16
2022-12-25T01:13:29.329Z,101159.69
2022-12-25T01:15:55.959Z,101154.91
2022-12-25T01:18:24.505Z,101164.66
2022-12-25T01:20:51.183Z,101157.47
2022-12-25T01:23:17.703Z,101164.75
2022-12-25T01:25:44.140Z,101164.03
2022-12-25T01:28:10.599Z,101167.31
2022-12-25T01:30:37.002Z,101173.44
2022-12-25T01:33:03.622Z,101180.34
2022-12-25T01:35:30.073Z,101184.84
2022-12-25T01:37:56.869Z,101184.06
2022-12-25T01:40:23.316Z,101184.50
2022-12-25T01:42:49.773Z,101195.06
2022-12-25T01:45:37.322Z,101204.00
2022-12-25T01:48:11.518Z,101211.34
2022-12-25T01:50:40.978Z,101209.72
2022-12-25T01:53:07.720Z,101204.97
2022-12-25T01:55:36.060Z,101204.97
2022-12-25T01:58:02.799Z,101204.25
2022-12-25T02:00:29.208Z,101199.03
2022-12-25T02:02:56.157Z,101216.38
2022-12-25T02:05:34.272Z,101225.31
2022-12-25T02:08:06.272Z,101222.13
2022-12-25T02:10:32.716Z,101225.75
2022-12-25T02:13:00.267Z,101227.78
2022-12-25T02:15:34.616Z,101230.28
2022-12-25T02:18:07.071Z,101228.69
2022-12-25T02:20:40.207Z,101231.50
2022-12-25T02:23:20.684Z,101219.09
2022-12-25T02:26:17.924Z,101227.97
2022-12-25T02:29:00.771Z,101232.03
2022-12-25T02:32:02.335Z,101220.34
2022-12-25T02:34:39.407Z,101233.69
2022-12-25T02:37:21.924Z,101235.41
2022-12-25T02:40:00.542Z,101225.66
2022-12-25T02:42:58.132Z,101224.06
2022-12-25T02:45:56.866Z,101235.06
2022-12-25T02:48:54.401Z,101227.78
2022-12-25T02:51:41.821Z,101221.72
2022-12-25T02:54:32.942Z,101213.66
2022-12-25T02:57:22.744Z,101217.72
2022-12-25T03:00:12.508Z,101225.06
2022-12-25T03:03:01.518Z,101230.72
2022-12-25T03:05:50.519Z,101223.91
2022-12-25T03:08:22.407Z,101228.78
2022-12-25T03:11:18.053Z,101225.97
2022-12-25T03:13:49.741Z,101221.53
2022-12-25T03:16:34.975Z,101225.97
2022-12-25T03:19:21.673Z,101227.97
2022-12-25T03:22:23.355Z,101230.03
2022-12-25T03:25:08.939Z,101231.69
2022-12-25T03:27:35.481Z,101222.41
2022-12-25T03:30:20.741Z,101232.13
2022-12-25T03:32:58.726Z,101231.25
2022-12-25T03:35:44.305Z,101226.84
2022-12-25T03:38:50.293Z,101227.63
2022-12-25T03:41:56.400Z,101226.84
2022-12-25T03:44:56.410Z,101230.13
2022-12-25T03:47:35.140Z,101228.06
2022-12-25T03:50:51.502Z,101215.94
2022-12-25T03:54:08.148Z,101222.84
2022-12-25T03:56:56.507Z,101209.03
2022-12-25T03:59:42.560Z,101206.63
2022-12-25T04:02:28.709Z,101214.69
2022-12-25T04:05:13.733Z,101210.72
2022-12-25T04:07:58.551Z,101215.13
2022-12-25T04:10:43.910Z,101208.69
2022-12-25T04:13:29.466Z,101201.84
2022-12-25T04:16:14.347Z,101192.13
2022-12-25T04:18:59.604Z,101194.97
2022-12-25T04:21:44.464Z,101196.19
2022-12-25T04:24:29.834Z,101201.84
2022-12-25T04:27:15.065Z,101205.94
2022-12-25T04:30:10.705Z,101200.28
2022-12-25T04:32:55.480Z,101191.78
2022-12-25T04:35:40.659Z,101192.22
2022-12-25T04:38:07.186Z,101195.03
2022-12-25T04:40:33.627Z,101191.03
2022-12-25T04:43:00.060Z,101188.13
2022-12-25T04:45:26.514Z,101187.34
2022-12-25T04:47:52.981Z,101186.09
2022-12-25T04:50:19.706Z,101188.94
2022-12-25T04:52:46.139Z,101184.94
2022-12-25T04:55:12.835Z,101194.59
2022-12-25T04:57:39.287Z,101190.94
2022-12-25T05:00:06.414Z,101181.66
2022-12-25T05:02:33.244Z,101170.34
2022-12-25T05:04:59.842Z,101167.50
2022-12-25T05:07:26.297Z,101160.25
2022-12-25T05:09:52.743Z,101156.53
2022-12-25T05:12:19.208Z,101144.41
2022-12-25T05:14:46.640Z,101146.47
2022-12-25T05:17:13.342Z,101134.31
2022-12-25T05:19:39.775Z,101153.69
2022-12-25T05:22:06.188Z,101151.69
2022-12-25T05:24:32.681Z,101141.94
2022-12-25T05:26:59.098Z,101145.22
2022-12-25T05:29:25.517Z,101134.69
2022-12-25T05:31:52.045Z,101141.16
2022-12-25T05:34:18.519Z,101121.66
2022-12-25T05:36:44.968Z,101120.88
2022-12-25T05:39:11.397Z,101122.50
2022-12-25T05:41:37.854Z,101124.50
2022-12-25T05:44:04.491Z,101124.88
2022-12-25T05:46:31.015Z,101120.44
2022-12-25T05:48:57.537Z,101122.94
2022-12-25T05:51:25.105Z,101127.72
2022-12-25T05:53:51.733Z,101127.72
2022-12-25T05:56:18.159Z,101132.13
2022-12-25T05:58:44.560Z,101130.53
2022-12-25T06:01:17.125Z,101129.66
2022-12-25T06:03:43.748Z,101126.91
2022-12-25T06:06:10.978Z,101141.00
2022-12-25T06:08:37.611Z,101135.34
2022-12-25T06:11:05.835Z,101137.34
2022-12-25T06:13:33.775Z,101130.91
2022-12-25T06:16:03.694Z,101128.06
2022-12-25T06:18:30.156Z,101135.34
2022-12-25T06:20:56.591Z,101132.94
2022-12-25T06:23:23.132Z,101130.47
2022-12-25T06:25:49.605Z,101135.34
2022-12-25T06:28:16.170Z,101141.34
2022-12-25T06:30:42.568Z,101138.50
2022-12-25T06:33:09.020Z,101135.34
2022-12-25T06:35:39.349Z,101139.31
2022-12-25T06:38:06.100Z,101143.72
2022-12-25T06:40:32.732Z,101143.34
2022-12-25T06:42:59.154Z,101136.91
2022-12-25T06:45:25.685Z,101141.69
2022-12-25T06:47:52.162Z,101132.84
2022-12-25T06:50:18.636Z,101136.81
2022-12-25T06:52:45.094Z,101137.63
2022-12-25T06:55:11.526Z,101137.63
2022-12-25T06:57:37.985Z,101129.13
2022-12-25T07:00:05.114Z,101117.44
2022-12-25T07:02:33.328Z,101111.41
2022-12-25T07:05:00.852Z,101117.38
2022-12-25T07:07:27.284Z,101112.47
2022-12-25T07:09:53.713Z,101110.88
2022-12-25T07:12:25.741Z,101122.59
2022-12-25T07:14:54.829Z,101124.25
2022-12-25T07:17:22.214Z,101131.09
2022-12-25T07:19:49.648Z,101140.03
2022-12-25T07:22:16.906Z,101144.03
2022-12-25T07:24:43.440Z,101142.41
2022-12-25T07:27:10.265Z,101143.28
2022-12-25T07:29:36.742Z,101135.94
2022-12-25T07:32:03.389Z,101140.91
2022-12-25T07:34:29.971Z,101146.47
2022-12-25T07:36:56.449Z,101145.75
2022-12-25T07:39:23.642Z,101147.72
2022-12-25T07:41:50.092Z,101154.19
2022-12-25T07:44:16.554Z,101155.06
2022-12-25T07:46:42.984Z,101154.19
2022-12-25T07:49:10.707Z,101154.19
2022-12-25T07:51:37.338Z,101148.97
2022-12-25T07:54:04.266Z,101149.31
2022-12-25T07:56:30.721Z,101141.59
2022-12-25T07:58:57.129Z,101145.25
2022-12-25T08:01:26.756Z,101136.75
2022-12-25T08:03:58.923Z,101135.53
2022-12-25T08:06:29.872Z,101139.97
2022-12-25T08:09:08.328Z,101133.91
2022-12-25T08:11:35.472Z,101131.91
2022-12-25T08:14:01.976Z,101130.28
2022-12-25T08:16:28.490Z,101133.06
2022-12-25T08:18:55.017Z,101124.56
2022-12-25T08:21:21.537Z,101121.72
2022-12-25T08:23:48.282Z,101116.41
2022-12-25T08:26:18.753Z,101103.56
2022-12-25T08:28:45.851Z,101103.38
2022-12-25T08:31:27.237Z,101107.38
2022-12-25T08:33:56.026Z,101113.84
2022-12-25T08:36:23.497Z,101103.31
2022-12-25T08:38:50.245Z,101106.50
2022-12-25T08:41:17.441Z,101108.09
2022-12-25T08:43:44.067Z,101110.22
2022-12-25T08:46:10.798Z,101117.72
2022-12-25T08:48:38.341Z,101114.47
2022-12-25T08:51:08.238Z,101110.03
2022-12-25T08:53:34.937Z,101106.41
2022-12-25T08:56:04.432Z,101116.06
2022-12-25T08:58:31.012Z,101108.69
2022-12-25T09:00:57.672Z,101122.41
2022-12-25T09:03:24.659Z,101118.34
2022-12-25T09:05:52.172Z,101130.03
2022-12-25T09:08:18.965Z,101133.69
2022-12-25T09:10:45.411Z,101125.97
2022-12-25T09:13:12.821Z,101125.09
2022-12-25T09:15:39.978Z,101126.66
2022-12-25T09:18:06.577Z,101138.38
2022-12-25T09:20:33.134Z,101135.88
2022-12-25T09:22:59.711Z,101137.09
2022-12-25T09:25:26.254Z,101137.84
2022-12-25T09:27:52.906Z,101134.22
2022-12-25T09:30:19.512Z,101139.78
2022-12-25T09:32:45.970Z,101126.06
2022-12-25T09:35:13.908Z,101127.19
2022-12-25T09:37:40.405Z,101134.78
2022-12-25T09:40:07.961Z,101124.34
2022-12-25T09:42:34.575Z,101123.84
2022-12-25T09:45:12.988Z,101122.56
2022-12-25T09:47:43.615Z,101106.81
2022-12-25T09:50:22.187Z,101103.53
2022-12-25T09:53:00.820Z,101117.63
2022-12-25T09:55:31.408Z,101126.47
2022-12-25T09:58:09.842Z,101126.47
2022-12-25T10:00:42.436Z,101129.75
2022-12-25T10:03:21.799Z,101149.50
2022-12-25T10:06:08.460Z,101136.69
2022-12-25T10:08:53.372Z,101150.31
2022-12-25T10:11:25.735Z,101145.75
2022-12-25T10:14:07.284Z,101144.53
2022-12-25T10:17:04.365Z,101129.56
2022-12-25T10:19:51.476Z,101130.34
2022-12-25T10:22:31.855Z,101122.19
2022-12-25T10:25:00.584Z,101103.50
2022-12-25T10:27:34.888Z,101112.34
2022-12-25T10:30:02.050Z,101080.38
2022-12-25T10:32:28.689Z,101083.53
2022-12-25T10:34:55.269Z,101072.19
2022-12-25T10:37:21.816Z,101074.94
2022-12-25T10:39:48.254Z,101071.75
2022-12-25T10:42:29.333Z,101068.81
2022-12-25T10:44:56.691Z,101049.31
2022-12-25T10:47:30.249Z,101046.00
2022-12-25T10:49:57.941Z,101048.06
2022-12-25T10:52:27.718Z,101051.25
2022-12-25T10:54:55.464Z,101041.03
2022-12-25T10:57:24.524Z,101026.06
2022-12-25T10:59:58.799Z,101042.19
2022-12-25T11:02:28.009Z,101036.53
2022-12-25T11:05:04.734Z,101036.53
2022-12-25T11:07:33.424Z,101028.34
2022-12-25T11:10:05.674Z,101020.19
2022-12-25T11:12:38.298Z,101030.28
2022-12-25T11:15:26.850Z,101029.03
2022-12-25T11:17:53.301Z,101015.78
2022-12-25T11:20:20.670Z,100994.09
2022-12-25T11:22:49.542Z,100984.34
2022-12-25T11:25:25.634Z,100983.09
2022-12-25T11:28:01.064Z,100991.16
2022-12-25T11:30:32.408Z,100994.78
2022-12-25T11:33:02.675Z,100983.09
2022-12-25T11:35:32.412Z,100985.38
2022-12-25T11:37:58.892Z,100985.72
2022-12-25T11:40:29.575Z,100989.31
2022-12-25T11:43:07.839Z,100986.94
2022-12-25T11:45:41.412Z,100990.47
2022-12-25T11:48:14.159Z,100997.75
2022-12-25T11:50:45.433Z,100993.66
2022-12-25T11:53:20.102Z,100993.66
2022-12-25T11:55:54.718Z,100996.84
2022-12-25T11:58:36.028Z,101002.53
2022-12-25T12:01:08.629Z,100993.56
2022-12-25T12:03:38.474Z,100981.50
2022-12-25T12:06:20.090Z,101008.88
2022-12-25T12:08:51.946Z,101003.97
2022-12-25T12:11:32.324Z,101004.78
2022-12-25T12:14:29.192Z,101003.19
2022-12-25T12:16:55.730Z,100995.00
2022-12-25T12:19:26.751Z,100996.63
2022-12-25T12:21:56.976Z,100996.63
2022-12-25T12:24:27.948Z,100991.28
2022-12-25T12:27:13.239Z,100988.78
2022-12-25T12:29:48.439Z,100987.53
2022-12-25T12:32:37.737Z,100977.78
2022-12-25T12:35:14.781Z,100961.06
2022-12-25T12:37:42.323Z,100957.00
2022-12-25T12:40:24.332Z,100950.88
2022-12-25T12:42:52.234Z,100955.28
2022-12-25T12:45:32.353Z,100956.53
2022-12-25T12:47:58.939Z,100956.41
2022-12-25T12:50:37.040Z,100958.03
2022-12-25T12:53:23.698Z,100946.66
2022-12-25T12:55:51.377Z,100949.84
2022-12-25T12:58:33.066Z,100937.69
2022-12-25T13:01:11.648Z,100931.91
2022-12-25T13:03:55.991Z,100912.94
2022-12-25T13:06:40.115Z,100895.00
2022-12-25T13:09:27.812Z,100871.94
2022-12-25T13:11:54.812Z,100878.28
2022-12-25T13:14:23.271Z,100868.53
2022-12-25T13:16:52.624Z,100872.59
2022-12-25T13:19:24.897Z,100884.28
2022-12-25T13:21:55.854Z,100871.69
2022-12-25T13:24:25.872Z,100875.31
2022-12-25T13:26:53.040Z,100865.22
2022-12-25T13:29:28.274Z,100870.00
2022-12-25T13:31:55.171Z,100868.72
2022-12-25T13:34:32.385Z,100858.63
2022-12-25T13:37:09.549Z,100857.38
2022-12-25T13:39:39.369Z,100855.34
2022-12-25T13:42:09.335Z,100854.06
2022-12-25T13:44:51.912Z,100836.72
2022-12-25T13:47:18.324Z,100834.19
2022-12-25T13:49:45.285Z,100844.31
2022-12-25T13:52:14.916Z,100836.59
2022-12-25T13:54:57.609Z,100834.19
2022-12-25T13:57:28.367Z,100838.19
2022-12-25T13:59:55.658Z,100836.59
2022-12-25T14:02:28.464Z,100841.47
2022-12-25T14:04:55.261Z,100840.69
2022-12-25T14:07:24.050Z,100847.47
2022-12-25T14:09:56.146Z,100856.00
2022-12-25T14:12:24.286Z,100843.03
2022-12-25T14:14:52.699Z,100846.25
2022-12-25T14:17:19.524Z,100853.94
2022-12-25T14:19:45.979Z,100852.69
2022-12-25T14:22:22.588Z,100849.06
2022-12-25T14:24:49.259Z,100844.63
2022-12-25T14:27:25.016Z,100842.13
2022-12-25T14:29:55.016Z,100832.38
2022-12-25T14:32:27.183Z,100822.59
2022-12-25T14:34:59.485Z,100815.31
2022-12-25T14:37:30.447Z,100808.41
2022-12-25T14:40:02.378Z,100816.47
2022-12-25T14:42:32.703Z,100818.50
2022-12-25T14:45:07.368Z,100814.41
2022-12-25T14:47:50.606Z,100822.59
2022-12-25T14:50:38.511Z,100813.63
2022-12-25T14:53:16.536Z,100814.41
2022-12-25T14:55:48.104Z,100807.50
2022-12-25T14:58:21.996Z,100807.50
2022-12-25T15:00:58.598Z,100799.75
2022-12-25T15:03:32.240Z,100788.06
2022-12-25T15:06:11.163Z,100777.50
2022-12-25T15:08:37.623Z,100779.41
2022-12-25T15:11:04.435Z,100777.81
2022-12-25T15:13:31.412Z,100776.56
2022-12-25T15:16:12.417Z,100760.78
2022-12-25T15:18:43.434Z,100771.22
2022-12-25T15:21:17.607Z,100769.66
2022-12-25T15:23:44.391Z,100766.81
2022-12-25T15:26:14.263Z,100762.69
2022-12-25T15:28:40.938Z,100763.97
2022-12-25T15:31:21.125Z,100772.50
2022-12-25T15:33:48.546Z,100754.19
2022-12-25T15:36:15.304Z,100745.97
2022-12-25T15:38:41.812Z,100733.06
2022-12-25T15:41:35.784Z,100739.50
2022-12-25T15:44:03.361Z,100728.94
2022-12-25T15:46:30.081Z,100729.75
2022-12-25T15:48:56.564Z,100724.84
2022-12-25T15:51:23.227Z,100723.25
2022-12-25T15:53:49.918Z,100730.53
2022-12-25T15:56:16.452Z,100734.97
2022-12-25T15:58:42.858Z,100727.69
2022-12-25T16:01:15.300Z,100728.81
2022-12-25T16:03:42.773Z,100713.34
2022-12-25T16:06:14.530Z,100714.94
2022-12-25T16:08:41.679Z,100714.16
2022-12-25T16:11:08.347Z,100708.13
2022-12-25T16:13:35.214Z,100711.31
2022-12-25T16:16:02.835Z,100710.06
2022-12-25T16:18:30.494Z,100712.91
2022-12-25T16:20:58.745Z,100710.06
2022-12-25T16:23:25.396Z,100697.13
2022-12-25T16:25:51.865Z,100698.22
2022-12-25T16:28:18.343Z,100700.28
2022-12-25T16:30:45.150Z,100696.19
2022-12-25T16:33:11.736Z,100690.53
2022-12-25T16:35:38.215Z,100687.69
2022-12-25T16:38:04.679Z,100676.63
2022-12-25T16:40:31.903Z,100672.19
2022-12-25T16:42:58.473Z,100670.94
2022-12-25T16:45:24.950Z,100663.22
2022-12-25T16:47:51.352Z,100659.59
2022-12-25T16:50:17.906Z,100649.00
2022-12-25T16:52:45.422Z,100653.91
2022-12-25T16:55:11.884Z,100644.94
2022-12-25T16:57:38.352Z,100642.09
2022-12-25T17:00:05.741Z,100642.09
2022-12-25T17:02:32.389Z,100637.97
2022-12-25T17:05:00.373Z,100628.81
2022-12-25T17:07:27.193Z,100631.50
2022-12-25T17:09:53.804Z,100623.78
2022-12-25T17:12:20.489Z,100611.63
2022-12-25T17:14:46.996Z,100616.06
2022-12-25T17:17:13.546Z,100611.63
2022-12-25T17:19:40.048Z,100611.94
2022-12-25T17:22:07.340Z,100606.72
2022-12-25T17:24:36.255Z,100609.91
2022-12-25T17:27:03.419Z,100599.34
2022-12-25T17:29:31.779Z,100584.81
2022-12-25T17:31:58.235Z,100587.19
2022-12-25T17:34:24.826Z,100589.22
2022-12-25T17:36:52.851Z,100596.03
2022-12-25T17:39:19.443Z,100587.19
2022-12-25T17:41:45.915Z,100583.53
2022-12-25T17:44:12.420Z,100581.03
2022-12-25T17:46:38.891Z,100570.94
2022-12-25T17:49:05.698Z,100584.19
2022-12-25T17:51:32.571Z,100583.88
2022-12-25T17:54:03.131Z,100582.13
2022-12-25T17:56:30.398Z,100597.16
2022-12-25T17:58:59.942Z,100587.03
2022-12-25T18:01:28.248Z,100578.06
2022-12-25T18:03:55.294Z,100569.53
2022-12-25T18:06:25.379Z,100567.47
2022-12-25T18:08:54.459Z,100557.03
2022-12-25T18:11:24.565Z,100541.59
2022-12-25T18:13:53.279Z,100541.59
2022-12-25T18:16:22.202Z,100534.97
2022-12-25T18:18:52.284Z,100531.34
2022-12-25T18:21:20.098Z,100531.34
2022-12-25T18:23:46.632Z,100511.94
2022-12-25T18:26:13.503Z,100522.00
2022-12-25T18:28:42.304Z,100511.47
2022-12-25T18:31:11.035Z,100507.66
2022-12-25T18:33:37.544Z,100501.66
2022-12-25T18:36:04.620Z,100498.34
2022-12-25T18:38:31.092Z,100502.44
2022-12-25T18:40:57.931Z,100495.50
2022-12-25T18:43:52.289Z,100487.00
2022-12-25T18:46:11.554Z,100490.63
2022-12-25T18:48:39.251Z,100482.91
2022-12-25T18:51:08.727Z,100483.69
2022-12-25T18:53:36.082Z,100486.06
2022-12-25T18:56:15.185Z,100473.09
2022-12-25T18:58:41.835Z,100465.03
2022-12-25T19:01:17.051Z,100464.56
2022-12-25T19:03:43.853Z,100458.41
2022-12-25T19:06:17.266Z,100453.22
2022-12-25T19:08:43.776Z,100454.03
2022-12-25T19:11:10.277Z,100452.75
2022-12-25T19:13:36.722Z,100445.81
2022-12-25T19:16:03.668Z,100440.13
2022-12-25T19:18:30.551Z,100441.72
2022-12-25T19:21:00.233Z,100425.91
2022-12-25T19:23:26.628Z,100433.97
2022-12-25T19:25:53.082Z,100428.28
2022-12-25T19:28:19.591Z,100430.34
2022-12-25T19:30:46.107Z,100419.78
2022-12-25T19:33:17.701Z,100412.84
2022-12-25T19:35:44.630Z,100408.72
2022-12-25T19:38:11.332Z,100399.41
2022-12-25T19:40:39.679Z,100392.47
2022-12-25T19:43:07.369Z,100401.78
2022-12-25T19:45:33.906Z,100400.19
2022-12-25T19:48:00.449Z,100390.41
2022-12-25T19:50:28.448Z,100384.44
2022-12-25T19:52:55.662Z,100383.13
2022-12-25T19:55:22.177Z,100392.00
2022-12-25T19:57:49.639Z,100389.94
2022-12-25T20:00:16.479Z,100392.78
2022-12-25T20:02:43.378Z,100392.78
2022-12-25T20:05:09.879Z,100388.66
2022-12-25T20:07:36.315Z,100377.78
2022-12-25T20:10:02.744Z,100390.25
2022-12-25T20:12:29.206Z,100385.34
2022-12-25T20:14:56.029Z,100383.78
2022-12-25T20:17:22.549Z,100389.78
2022-12-25T20:19:48.993Z,100389.78
2022-12-25T20:22:15.474Z,100378.09
2022-12-25T20:24:41.928Z,100378.41
2022-12-25T20:27:08.516Z,100371.47
2022-12-25T20:29:35.029Z,100364.19
2022-12-25T20:32:01.594Z,100367.81
2022-12-25T20:34:28.195Z,100364.50
2022-12-25T20:36:56.090Z,100359.78
2022-12-25T20:39:22.574Z,100353.94
2022-12-25T20:41:49.000Z,100358.81
2022-12-25T20:44:15.426Z,100353.94
2022-12-25T20:46:41.934Z,100359.63
2022-12-25T20:49:08.614Z,100363.72
2022-12-25T20:51:35.171Z,100369.72
2022-12-25T20:54:06.186Z,100362.78
2022-12-25T20:56:32.619Z,100354.72
2022-12-25T20:59:00.266Z,100357.09
2022-12-25T21:01:28.663Z,100357.88
2022-12-25T21:03:55.872Z,100356.31
2022-12-25T21:06:22.914Z,100364.38
2022-12-25T21:08:49.383Z,100368.78
2022-12-25T21:11:16.738Z,100362.31
2022-12-25T21:13:45.117Z,100360.25
2022-12-25T21:16:15.082Z,100359.47
2022-12-25T21:18:41.763Z,100355.03
2022-12-25T21:21:08.683Z,100358.22
2022-12-25T21:23:37.463Z,100371.13
2022-12-25T21:26:18.374Z,100369.25
2022-12-25T21:28:46.694Z,100362.59
2022-12-25T21:31:13.477Z,100361.34
2022-12-25T21:33:52.018Z,100355.69
2022-12-25T21:36:24.941Z,100358.53
2022-12-25T21:39:14.159Z,100363.38
2022-12-25T21:41:40.645Z,100375.56
2022-12-25T21:44:07.907Z,100369.06
2022-12-25T21:46:34.455Z,100375.56
2022-12-25T21:49:01.072Z,100375.56
2022-12-25T21:51:51.483Z,100371.44
2022-12-25T21:54:20.747Z,100371.44
2022-12-25T21:56:48.690Z,100367.81
2022-12-25T21:59:18.779Z,100365.75
2022-12-25T22:01:47.025Z,100362.91
2022-12-25T22:04:15.527Z,100356.94
2022-12-25T22:07:00.871Z,100366.56
2022-12-25T22:09:27.353Z,100369.41
2022-12-25T22:12:12.427Z,100362.91
2022-12-25T22:14:55.344Z,100355.97
2022-12-25T22:17:47.310Z,100365.75
2022-12-25T22:20:22.660Z,100362.59
2022-12-25T22:22:49.448Z,100354.38
2022-12-25T22:25:17.092Z,100348.72
2022-12-25T22:27:44.834Z,100349.50
2022-12-25T22:30:20.014Z,100360.06
2022-12-25T22:32:46.767Z,100361.66
2022-12-25T22:35:14.151Z,100355.97
2022-12-25T22:37:42.213Z,100357.56
2022-12-25T22:40:11.018Z,100348.22
2022-12-25T22:42:37.505Z,100353.13
2022-12-25T22:45:04.703Z,100353.91
2022-12-25T22:47:31.484Z,100364.03
2022-12-25T22:49:57.996Z,100364.81
2022-12-25T22:52:24.707Z,100363.25
2022-12-25T22:54:51.217Z,100364.81
2022-12-25T22:57:17.667Z,100366.09
2022-12-25T22:59:44.221Z,100371.78
2022-12-25T23:02:10.816Z,100377.75
2022-12-25T23:04:37.342Z,100376.19
2022-12-25T23:07:03.852Z,100377.75
2022-12-25T23:09:30.577Z,100370.50
2022-12-25T23:11:58.208Z,100373.34
2022-12-25T23:14:41.588Z,100360.88
2022-12-25T23:17:32.393Z,100367.66
2022-12-25T23:20:18.754Z,100372.25
2022-12-25T23:23:04.886Z,100384.69
2022-12-25T23:25:50.240Z,100390.88
2022-12-25T23:28:36.871Z,100379.50
2022-12-25T23:31:03.631Z,100375.56
2022-12-25T23:33:30.211Z,100382.34
2022-12-25T23:35:56.631Z,100384.69
2022-12-25T23:38:23.176Z,100387.53
2022-12-25T23:40:49.599Z,100376.97
2022-12-25T23:43:16.062Z,100383.44
2022-12-25T23:45:42.522Z,100381.09
2022-12-25T23:48:08.951Z,100374.94
2022-12-25T23:50:35.422Z,100379.81
2022-12-25T23:53:01.874Z,100376.97
2022-12-25T23:55:28.361Z,100389.13
2022-12-25T23:57:54.856Z,100392.44
